createdAt,value
2022-10-05T07:24:05.037Z,69.80
2022-10-05T07:25:19.005Z,67.93
2022-10-05T07:26:38.889Z,68.55
2022-10-05T07:28:02.241Z,68.02
2022-10-05T07:29:28.693Z,67.22
2022-10-05T07:30:36.080Z,68.38
2022-10-05T07:32:03.404Z,68.95
2022-10-05T07:33:18.826Z,68.69
2022-10-05T07:34:34.694Z,69.04
2022-10-05T07:36:03.989Z,68.28
2022-10-05T07:37:30.385Z,67.33
2022-10-05T07:38:41.041Z,65.39
2022-10-05T07:40:06.622Z,61.21
2022-10-05T07:41:22.877Z,60.64
2022-10-05T07:55:16.151Z,60.13
2022-10-05T07:56:25.619Z,59.74
2022-10-05T07:57:33.133Z,59.11
2022-10-05T07:58:44.842Z,61.38
2022-10-05T08:00:01.097Z,60.02
2022-10-05T08:01:08.669Z,59.31
2022-10-05T08:02:32.691Z,62.06
2022-10-05T08:03:43.349Z,62.18
2022-10-05T08:04:58.609Z,62.14
2022-10-05T08:06:03.411Z,59.27
2022-10-05T08:07:09.131Z,55.95
2022-10-05T08:08:18.200Z,57.88
2022-10-05T08:09:50.090Z,58.90
2022-10-05T08:11:18.843Z,59.88
2022-10-05T08:12:28.474Z,59.23
2022-10-05T08:13:39.211Z,57.90
2022-10-05T08:14:57.695Z,56.15
2022-10-05T08:16:03.703Z,56.79
2022-10-05T08:17:17.525Z,56.30
2022-10-05T08:18:21.623Z,56.11
2022-10-05T08:19:33.863Z,52.69
2022-10-05T08:20:48.192Z,51.97
2022-10-05T08:21:58.137Z,54.43
2022-10-05T08:23:10.462Z,52.74
2022-10-05T08:24:34.658Z,51.24
2022-10-05T08:25:42.044Z,50.53
2022-10-05T08:26:59.698Z,51.60
2022-10-05T08:28:20.800Z,54.72
2022-10-05T08:29:35.218Z,53.00
2022-10-05T08:31:02.033Z,50.69
2022-10-05T08:32:11.965Z,50.81
2022-10-05T08:33:22.106Z,51.09
2022-10-05T08:35:01.485Z,50.94
2022-10-05T08:42:50.800Z,46.05
2022-10-05T08:44:00.979Z,45.54
2022-10-05T08:45:36.248Z,45.28
2022-10-05T08:47:15.063Z,44.93
2022-10-05T08:48:53.389Z,49.32
2022-10-05T08:50:17.254Z,50.24
2022-10-05T08:51:36.559Z,49.23
2022-10-05T08:53:12.290Z,49.29
2022-10-05T08:54:13.633Z,45.03
2022-10-05T08:55:32.606Z,44.67
2022-10-05T08:56:52.554Z,45.65
2022-10-05T08:58:12.073Z,43.21
2022-10-05T08:59:13.360Z,42.14
2022-10-05T09:00:37.278Z,46.58
2022-10-05T09:01:45.225Z,45.20
2022-10-05T09:03:17.401Z,47.07
2022-10-05T09:04:34.741Z,46.82
2022-10-05T09:05:56.951Z,45.85
2022-10-05T09:12:07.605Z,45.78
2022-10-05T09:13:26.240Z,40.41
2022-10-05T09:14:40.036Z,40.95
2022-10-05T09:15:48.055Z,39.10
2022-10-05T09:16:52.886Z,41.89
2022-10-05T09:18:18.690Z,44.71
2022-10-05T09:19:40.459Z,41.02
2022-10-05T09:21:23.508Z,39.43
2022-10-05T09:22:41.274Z,39.48
2022-10-05T09:23:48.545Z,40.99
2022-10-05T09:25:17.110Z,41.39
2022-10-05T09:26:37.283Z,41.10
2022-10-05T09:27:46.305Z,41.20
2022-10-05T09:29:25.116Z,43.71
2022-10-05T09:48:56.089Z,39.88
2022-10-05T09:50:22.757Z,39.73
2022-10-05T09:51:45.702Z,41.52
2022-10-05T09:53:09.367Z,40.20
2022-10-05T09:54:48.378Z,42.57
2022-10-05T09:56:05.197Z,42.00
2022-10-05T09:57:39.289Z,42.59
2022-10-05T09:59:18.500Z,40.79
2022-10-05T10:00:54.196Z,41.83
2022-10-05T10:02:30.757Z,42.59
2022-10-05T10:04:10.170Z,40.21
2022-10-05T10:05:31.290Z,39.09
2022-10-05T10:25:19.094Z,37.49
2022-10-05T10:26:54.239Z,36.02
2022-10-05T10:28:07.564Z,36.57
2022-10-05T10:29:36.840Z,36.25
2022-10-05T10:30:56.970Z,36.55
2022-10-05T10:32:30.469Z,36.53
2022-10-05T10:34:00.178Z,37.78
2022-10-05T10:35:21.955Z,38.83
2022-10-05T10:36:41.887Z,40.12
2022-10-05T10:38:20.464Z,39.57
2022-10-05T10:39:59.571Z,39.08
2022-10-05T10:41:49.326Z,38.95
2022-10-05T10:43:05.844Z,37.30
2022-10-05T10:44:41.904Z,37.60
2022-10-05T10:46:14.550Z,38.69
2022-10-05T10:47:15.870Z,38.85
2022-10-05T10:54:03.575Z,37.79
2022-10-05T10:55:08.073Z,38.76
2022-10-05T10:56:41.877Z,38.82
2022-10-05T10:58:24.129Z,39.19
2022-10-05T10:59:46.791Z,41.79
2022-10-05T11:01:33.559Z,43.97
2022-10-05T11:02:38.423Z,42.24
2022-10-05T11:04:31.059Z,42.82
2022-10-05T11:05:32.447Z,43.77
2022-10-05T11:06:39.094Z,42.82
2022-10-05T11:07:55.028Z,41.53
2022-10-05T11:09:14.776Z,42.40
2022-10-05T11:10:37.808Z,45.60
2022-10-05T11:12:02.847Z,43.40
2022-10-05T11:13:25.559Z,42.17
2022-10-05T11:15:08.543Z,44.36
2022-10-05T11:16:37.933Z,42.63
2022-10-05T11:17:58.950Z,44.16
2022-10-05T11:42:03.891Z,43.59
2022-10-05T11:43:42.860Z,43.12
2022-10-05T11:45:19.193Z,44.23
2022-10-05T11:46:36.038Z,44.00
2022-10-05T11:47:56.978Z,42.46
2022-10-05T11:54:07.089Z,43.21
2022-10-05T11:55:23.715Z,43.31
2022-10-05T11:56:41.190Z,44.54
2022-10-05T11:57:46.600Z,43.57
2022-10-05T11:59:21.002Z,43.06
2022-10-05T12:12:31.250Z,42.21
2022-10-05T12:13:46.057Z,42.81
2022-10-05T12:14:56.345Z,42.73
2022-10-05T12:16:00.239Z,42.31
2022-10-05T12:17:04.532Z,42.16
2022-10-05T12:18:21.005Z,43.34
2022-10-05T12:19:31.557Z,41.97
2022-10-05T12:20:40.697Z,41.85
2022-10-05T12:21:59.950Z,41.25
2022-10-05T12:23:20.856Z,40.95
2022-10-05T12:25:17.106Z,41.63
2022-10-05T12:26:48.738Z,42.03
2022-10-05T12:27:54.069Z,41.00
2022-10-05T12:29:13.149Z,41.21
2022-10-05T12:30:19.807Z,41.08
2022-10-05T12:31:29.947Z,42.46
2022-10-05T12:32:38.477Z,40.00
2022-10-05T12:33:54.264Z,39.43
2022-10-05T12:35:30.073Z,40.99
2022-10-05T12:42:05.178Z,40.22
2022-10-05T12:43:23.169Z,39.83
2022-10-05T12:44:43.556Z,38.95
2022-10-05T12:45:56.647Z,40.92
2022-10-05T12:47:18.517Z,40.87
2022-10-05T12:48:31.905Z,42.11
2022-10-05T12:49:41.135Z,41.58
2022-10-05T12:50:49.682Z,41.02
2022-10-05T12:52:03.098Z,41.10
2022-10-05T12:53:40.847Z,41.41
2022-10-05T12:54:48.429Z,42.75
2022-10-05T12:55:54.757Z,43.47
2022-10-05T12:57:04.834Z,43.23
2022-10-05T12:58:28.723Z,41.96
2022-10-05T12:59:47.541Z,40.53
2022-10-05T13:01:08.311Z,41.94
2022-10-05T13:02:25.572Z,41.17
2022-10-05T13:04:03.217Z,42.33
2022-10-05T13:05:10.646Z,42.53
2022-10-05T13:06:21.628Z,42.53
2022-10-05T13:07:38.745Z,43.62
2022-10-05T13:09:17.254Z,42.39
2022-10-05T13:10:40.593Z,41.74
2022-10-05T13:11:48.094Z,42.40
2022-10-05T13:18:04.233Z,42.69
2022-10-05T13:19:25.399Z,43.11
2022-10-05T13:20:35.248Z,42.05
2022-10-05T13:21:55.696Z,41.67
2022-10-05T13:23:09.618Z,40.30
2022-10-05T13:24:26.293Z,40.43
2022-10-05T13:25:34.695Z,40.85
2022-10-05T13:26:40.832Z,42.18
2022-10-05T13:28:08.383Z,41.10
2022-10-05T13:29:33.187Z,41.37
2022-10-05T13:30:36.621Z,41.10
2022-10-05T13:31:54.154Z,40.38
2022-10-05T13:33:20.617Z,40.30
2022-10-05T13:34:43.258Z,40.25
2022-10-05T13:36:12.583Z,40.39
2022-10-05T13:37:23.968Z,39.53
2022-10-05T13:38:34.348Z,39.69
2022-10-05T13:40:10.860Z,39.86
2022-10-05T13:41:25.785Z,40.54
2022-10-05T13:42:42.841Z,41.24
2022-10-05T13:43:58.162Z,41.40
2022-10-05T13:45:13.380Z,41.11
2022-10-05T13:46:40.372Z,40.54
2022-10-05T13:48:01.952Z,40.32
2022-10-05T14:00:27.365Z,41.27
2022-10-05T14:01:34.545Z,40.64
2022-10-05T14:02:41.660Z,40.23
2022-10-05T14:04:13.635Z,41.75
2022-10-05T14:05:22.287Z,42.29
2022-10-05T14:06:33.130Z,42.43
2022-10-05T14:07:38.996Z,42.01
2022-10-05T14:08:53.069Z,42.39
2022-10-05T14:09:54.589Z,42.43
2022-10-05T14:10:56.924Z,42.93
2022-10-05T14:36:40.199Z,42.71
2022-10-05T14:37:50.423Z,42.56
2022-10-05T14:38:57.694Z,42.93
2022-10-05T14:40:23.356Z,43.16
2022-10-05T14:41:27.231Z,43.75
2022-10-05T14:42:44.938Z,43.06
2022-10-05T14:44:18.449Z,43.64
2022-10-05T14:45:23.796Z,44.15
2022-10-05T14:46:29.240Z,43.45
2022-10-05T14:47:32.149Z,42.15
2022-10-05T14:48:44.638Z,44.81
2022-10-05T14:50:10.636Z,44.65
2022-10-05T14:51:35.827Z,44.27
2022-10-05T14:52:38.986Z,43.23
2022-10-05T14:53:43.467Z,42.91
2022-10-05T14:55:21.226Z,42.17
2022-10-05T14:56:43.993Z,40.57
2022-10-05T14:57:58.239Z,38.86
2022-10-05T14:59:14.188Z,39.04
2022-10-05T15:12:06.036Z,40.25
2022-10-05T15:13:15.516Z,40.04
2022-10-05T15:14:24.524Z,40.39
2022-10-05T15:15:32.686Z,40.02
2022-10-05T15:16:38.206Z,39.76
2022-10-05T15:17:47.456Z,40.19
2022-10-05T15:24:03.936Z,39.98
2022-10-05T15:25:18.793Z,39.29
2022-10-05T15:26:48.962Z,40.02
2022-10-05T15:28:16.228Z,39.72
2022-10-05T15:29:36.231Z,39.82
2022-10-05T15:30:42.686Z,40.36
2022-10-05T15:32:03.125Z,40.65
2022-10-05T15:33:09.113Z,41.20
2022-10-05T15:34:20.901Z,40.96
2022-10-05T15:35:45.420Z,41.14
2022-10-05T15:36:58.674Z,41.20
2022-10-05T15:38:12.233Z,40.94
2022-10-05T15:39:37.122Z,41.23
2022-10-05T15:40:58.783Z,41.42
2022-10-05T15:49:19.948Z,40.84
2022-10-05T15:50:28.357Z,41.48
2022-10-05T15:52:03.908Z,41.13
2022-10-05T15:53:21.136Z,40.56
2022-10-05T15:55:00.091Z,41.42
2022-10-05T15:56:13.075Z,41.02
2022-10-05T15:57:34.763Z,41.17
2022-10-05T15:58:39.057Z,40.98
2022-10-05T15:59:49.669Z,41.62
2022-10-05T16:01:20.090Z,41.50
2022-10-05T16:02:28.800Z,41.58
2022-10-05T16:03:51.110Z,41.92
2022-10-05T16:05:41.456Z,42.44
2022-10-05T16:07:08.872Z,42.41
2022-10-05T16:09:00.495Z,42.50
2022-10-05T16:10:21.407Z,42.97
2022-10-05T16:11:44.464Z,42.35
2022-10-05T16:13:07.492Z,42.53
2022-10-05T16:14:21.593Z,42.31
2022-10-05T16:15:37.675Z,42.45
2022-10-05T16:17:01.051Z,42.57
2022-10-05T16:18:30.185Z,42.54
2022-10-05T16:19:46.150Z,42.50
2022-10-05T16:20:59.449Z,42.80
2022-10-05T16:22:20.464Z,42.34
2022-10-05T16:23:34.445Z,42.81
2022-10-05T16:25:03.340Z,42.83
2022-10-05T16:26:34.857Z,43.13
2022-10-05T16:28:05.296Z,42.96
2022-10-05T16:29:24.656Z,43.08
2022-10-05T16:30:26.762Z,44.00
2022-10-05T16:31:37.460Z,44.78
2022-10-05T16:33:03.423Z,45.24
2022-10-05T16:34:30.913Z,45.84
2022-10-05T16:35:47.017Z,46.17
2022-10-05T16:37:03.888Z,46.43
